Preachers Slough, Washington
Current Conditions -  °F | °C
As of 7:53 AM on Saturday 22 Nov 2014 (Local Time) from KSHN Reporting Station
Light Rain Light Rain  
Wind Chill: 39°   Ceiling: 4200
Heat Index: 43°   Visibility: 8mi
Dew Point: 41°   Wind: 7mph
Humidity: 93%   Direction: 180°S
Pressure: 29.69"   Gusts: NA
Location:  47.555°N, 123.746°W
Report Text: KSHN 221553Z AUTO 18006KT 8SM -RA OVC042 06/05 A2969 RMK AO2 SLP056 P0009 T00610050
Loading
Personal Weather Stations






























Interactive Weather Map New forecast layout! Learn more

10-Day Weather Forecast

Advertisements
Track Severe Weather on mobile